createdAt,value
2018-04-07T00:06:45.300Z,5.00
2018-04-07T00:09:18.994Z,5.10
2018-04-07T00:11:51.693Z,5.00
2018-04-07T00:14:24.434Z,5.00
2018-04-07T00:16:57.153Z,5.00
2018-04-07T00:19:33.015Z,5.00
2018-04-07T00:22:06.082Z,5.10
2018-04-07T00:24:38.820Z,5.10
2018-04-07T00:27:15.215Z,5.20
2018-04-07T00:29:47.961Z,5.20
2018-04-07T00:32:26.539Z,5.20
2018-04-07T00:34:59.285Z,5.20
2018-04-07T00:37:33.991Z,5.20
2018-04-07T00:40:06.842Z,5.30
2018-04-07T00:42:40.354Z,5.30
2018-04-07T00:45:17.428Z,5.30
2018-04-07T00:47:50.117Z,5.20
2018-04-07T00:50:23.613Z,5.30
2018-04-07T00:52:57.119Z,5.20
2018-04-07T00:55:30.669Z,5.10
2018-04-07T00:58:03.382Z,5.10
2018-04-07T01:00:38.978Z,5.20
2018-04-07T01:03:11.674Z,5.10
2018-04-07T01:05:44.427Z,5.20
2018-04-07T01:08:19.195Z,5.10
2018-04-07T01:10:51.933Z,5.10
2018-04-07T01:13:24.626Z,5.00
2018-04-07T01:15:58.180Z,4.90
2018-04-07T01:18:31.646Z,4.90
2018-04-07T01:21:06.314Z,4.80
2018-04-07T01:23:41.519Z,4.80
2018-04-07T01:26:16.943Z,4.80
2018-04-07T01:28:51.200Z,4.70
2018-04-07T01:31:29.227Z,4.70
2018-04-07T01:34:07.675Z,4.70
2018-04-07T01:36:45.235Z,4.70
2018-04-07T01:39:19.879Z,4.80
2018-04-07T01:41:56.301Z,4.90
2018-04-07T01:44:31.928Z,4.80
2018-04-07T01:47:11.348Z,4.80
2018-04-07T01:49:48.049Z,4.70
2018-04-07T01:52:24.197Z,4.80
2018-04-07T01:55:03.542Z,5.10
2018-04-07T01:57:41.430Z,5.20
2018-04-07T02:00:18.901Z,5.20
2018-04-07T02:02:54.019Z,5.20
2018-04-07T02:05:29.321Z,5.20
2018-04-07T02:08:05.650Z,5.20
2018-04-07T02:10:45.679Z,5.20
2018-04-07T02:13:20.878Z,5.20
2018-04-07T02:16:02.547Z,5.20
2018-04-07T02:18:40.388Z,5.10
2018-04-07T02:21:13.112Z,5.10
2018-04-07T02:23:46.576Z,5.10
2018-04-07T02:26:19.313Z,5.10
2018-04-07T02:28:52.020Z,5.00
2018-04-07T02:31:28.121Z,5.00
2018-04-07T02:34:01.603Z,5.00
2018-04-07T02:36:35.126Z,4.90
2018-04-07T02:39:09.567Z,4.90
2018-04-07T02:41:42.294Z,4.90
2018-04-07T02:44:15.000Z,4.90
2018-04-07T02:46:55.626Z,4.80
2018-04-07T02:49:28.347Z,4.80
2018-04-07T02:52:01.885Z,4.80
2018-04-07T02:54:34.585Z,4.80
2018-04-07T02:57:08.293Z,4.80
2018-04-07T02:59:40.989Z,4.90
2018-04-07T03:02:16.554Z,4.80
2018-04-07T03:04:49.252Z,4.70
2018-04-07T03:07:22.007Z,4.80
2018-04-07T03:09:55.466Z,4.80
2018-04-07T03:12:28.201Z,4.80
2018-04-07T03:15:00.902Z,4.80
2018-04-07T03:17:34.666Z,4.90
2018-04-07T03:20:08.132Z,4.80
2018-04-07T03:22:40.930Z,4.80
2018-04-07T03:25:13.629Z,4.80
2018-04-07T03:27:46.360Z,4.70
2018-04-07T03:30:19.055Z,4.60
2018-04-07T03:32:52.825Z,4.50
2018-04-07T03:35:25.514Z,4.50
2018-04-07T03:37:58.240Z,4.40
2018-04-07T03:40:31.698Z,4.20
2018-04-07T03:43:04.443Z,4.20
2018-04-07T03:45:38.140Z,4.00
2018-04-07T03:48:14.198Z,4.00
2018-04-07T03:50:46.914Z,4.00
2018-04-07T03:53:19.643Z,4.00
2018-04-07T03:55:52.333Z,4.10
2018-04-07T03:58:25.069Z,4.20
2018-04-07T04:00:58.780Z,4.10
2018-04-07T04:03:38.616Z,4.20
2018-04-07T04:06:12.086Z,4.30
2018-04-07T04:08:44.818Z,4.30
2018-04-07T04:11:17.532Z,4.30
2018-04-07T04:13:50.258Z,4.40
2018-04-07T04:16:24.681Z,4.50
2018-04-07T04:18:59.206Z,4.50
2018-04-07T04:21:32.665Z,4.50
2018-04-07T04:24:05.409Z,4.50
2018-04-07T04:26:38.109Z,4.40
2018-04-07T04:29:10.842Z,4.30
2018-04-07T04:31:43.568Z,4.20
2018-04-07T04:34:23.537Z,4.10
2018-04-07T04:36:56.230Z,3.90
2018-04-07T04:39:28.980Z,3.90
2018-04-07T04:42:01.689Z,3.90
2018-04-07T04:44:35.186Z,3.90
2018-04-07T04:47:07.871Z,3.90
2018-04-07T04:49:47.787Z,4.00
2018-04-07T04:52:21.649Z,4.00
2018-04-07T04:54:54.343Z,4.10
2018-04-07T04:57:27.078Z,4.20
2018-04-07T05:00:00.536Z,4.40
2018-04-07T05:02:33.372Z,4.40
2018-04-07T05:05:06.065Z,4.50
2018-04-07T05:07:38.796Z,4.60
2018-04-07T05:10:11.492Z,4.70
2018-04-07T05:12:44.985Z,4.70
2018-04-07T05:15:17.693Z,4.70
2018-04-07T05:17:50.447Z,4.80
2018-04-07T05:20:24.882Z,4.80
2018-04-07T05:22:57.617Z,4.80
2018-04-07T05:25:30.313Z,4.80
2018-04-07T05:28:03.045Z,5.00
2018-04-07T05:30:35.765Z,5.00
2018-04-07T05:33:09.453Z,5.10
2018-04-07T05:35:42.150Z,5.10
2018-04-07T05:38:14.925Z,5.10
2018-04-07T05:40:48.603Z,5.20
2018-04-07T05:43:21.361Z,5.20
2018-04-07T05:45:54.067Z,5.30
2018-04-07T05:48:27.820Z,5.40
2018-04-07T05:51:00.509Z,5.50
2018-04-07T05:53:33.239Z,5.60
2018-04-07T05:56:05.948Z,5.60
2018-04-07T05:58:38.688Z,5.70
2018-04-07T06:01:11.513Z,5.80
2018-04-07T06:03:44.269Z,6.00
2018-04-07T06:06:17.961Z,6.10
2018-04-07T06:08:51.135Z,6.20
2018-04-07T06:11:23.823Z,6.30
2018-04-07T06:13:56.551Z,6.50
2018-04-07T06:16:29.242Z,6.60
2018-04-07T06:19:02.805Z,6.80
2018-04-07T06:21:35.536Z,6.80
2018-04-07T06:24:08.405Z,7.00
2018-04-07T06:26:41.105Z,7.10
2018-04-07T06:29:13.832Z,7.20
2018-04-07T06:31:47.297Z,7.40
2018-04-07T06:34:28.044Z,7.50
2018-04-07T06:37:00.742Z,7.60
2018-04-07T06:39:33.469Z,7.70
2018-04-07T06:42:07.136Z,7.80
2018-04-07T06:44:39.880Z,8.00
2018-04-07T06:47:12.577Z,8.30
2018-04-07T06:49:47.321Z,8.70
2018-04-07T06:52:20.020Z,9.20
2018-04-07T06:54:53.518Z,9.60
2018-04-07T06:57:26.224Z,9.60
2018-04-07T06:59:58.958Z,9.50
2018-04-07T07:02:32.423Z,10.20
2018-04-07T07:05:05.197Z,10.10
2018-04-07T07:07:37.890Z,10.10
2018-04-07T07:10:10.622Z,9.80
2018-04-07T07:12:44.314Z,9.60
2018-04-07T07:15:17.046Z,9.60
2018-04-07T07:17:49.934Z,9.70
2018-04-07T07:20:23.637Z,9.90
2018-04-07T07:22:56.357Z,9.90
2018-04-07T07:25:31.812Z,10.20
2018-04-07T07:28:05.173Z,10.70
2018-04-07T07:30:37.941Z,10.80
2018-04-07T07:33:10.646Z,10.70
2018-04-07T07:35:47.299Z,11.40
2018-04-07T07:38:20.017Z,11.40
2018-04-07T07:40:52.776Z,11.80
2018-04-07T07:43:25.489Z,11.70
2018-04-07T07:45:58.502Z,11.30
2018-04-07T07:48:31.212Z,11.50
2018-04-07T07:51:12.146Z,11.80
2018-04-07T07:53:44.909Z,11.70
2018-04-07T07:56:17.615Z,11.90
2018-04-07T07:58:50.353Z,12.20
2018-04-07T08:04:07.033Z,12.50
2018-04-07T08:06:43.877Z,13.00
2018-04-07T08:09:16.622Z,12.90
2018-04-07T08:11:49.898Z,12.50
2018-04-07T08:14:41.508Z,12.70
2018-04-07T08:17:27.633Z,12.60
2018-04-07T08:20:15.255Z,13.10
2018-04-07T08:22:53.444Z,13.10
2018-04-07T08:25:34.982Z,13.20
2018-04-07T08:28:20.014Z,13.20
2018-04-07T08:31:02.012Z,13.50
2018-04-07T08:33:54.944Z,13.80
2018-04-07T08:39:24.672Z,13.70
2018-04-07T08:42:09.686Z,13.70
2018-04-07T08:44:42.648Z,14.10
2018-04-07T08:47:15.363Z,14.30
2018-04-07T08:49:48.099Z,14.60
2018-04-07T08:55:28.171Z,14.20
2018-04-07T08:58:15.212Z,13.80
2018-04-07T09:00:50.162Z,13.80
2018-04-07T09:03:44.182Z,13.70
2018-04-07T09:21:01.526Z,14.70
2018-04-07T09:26:21.178Z,14.40
2018-04-07T09:29:05.219Z,14.40
2018-04-07T09:31:45.233Z,14.60
2018-04-07T09:34:24.994Z,14.80
2018-04-07T09:37:23.076Z,15.20
2018-04-07T09:45:31.881Z,14.70
2018-04-07T09:48:12.368Z,15.20
2018-04-07T09:50:55.105Z,15.40
2018-04-07T09:53:35.948Z,15.50
2018-04-07T09:58:57.608Z,15.60
2018-04-07T10:09:21.926Z,15.90
2018-04-07T10:11:57.908Z,15.90
2018-04-07T10:14:32.498Z,15.70
2018-04-07T10:17:11.965Z,15.90
2018-04-07T10:19:47.995Z,16.40
2018-04-07T10:25:07.366Z,16.30
2018-04-07T10:27:46.001Z,16.30
2018-04-07T10:30:26.716Z,16.10
2018-04-07T10:33:05.954Z,16.10
2018-04-07T10:41:24.803Z,15.80
2018-04-07T10:46:49.137Z,16.40
2018-04-07T10:49:34.722Z,16.50
2018-04-07T10:54:55.522Z,16.20
2018-04-07T10:57:37.761Z,16.00
2018-04-07T11:03:10.154Z,16.70
2018-04-07T11:05:59.333Z,16.40
2018-04-07T11:08:41.277Z,16.40
2018-04-07T11:17:18.095Z,16.30
2018-04-07T11:22:44.605Z,16.40
2018-04-07T11:25:29.541Z,16.50
2018-04-07T11:28:13.007Z,16.50
2018-04-07T11:30:52.665Z,16.80
2018-04-07T11:36:08.474Z,16.90
2018-04-07T11:41:43.586Z,16.80
2018-04-07T11:44:16.432Z,16.80
2018-04-07T11:46:49.143Z,16.70
2018-04-07T11:49:21.932Z,16.70
2018-04-07T11:51:58.421Z,16.80
2018-04-07T11:54:35.469Z,16.80
2018-04-07T11:57:08.243Z,16.80
2018-04-07T11:59:41.005Z,16.70
2018-04-07T12:02:13.706Z,16.60
2018-04-07T12:04:46.457Z,16.40
2018-04-07T12:07:20.182Z,16.40
2018-04-07T12:09:52.928Z,16.40
2018-04-07T12:12:25.638Z,16.50
2018-04-07T12:14:58.384Z,16.50
2018-04-07T12:17:31.095Z,16.70
2018-04-07T12:23:03.506Z,17.00
2018-04-07T12:25:46.090Z,17.00
2018-04-07T12:28:18.914Z,16.90
2018-04-07T12:30:52.423Z,17.20
2018-04-07T12:33:32.562Z,17.20
2018-04-07T12:39:09.982Z,17.60
2018-04-07T12:41:52.101Z,17.50
2018-04-07T12:44:29.176Z,17.50
2018-04-07T12:47:03.270Z,17.40
2018-04-07T12:49:36.976Z,17.40
2018-04-07T12:52:20.194Z,17.10
2018-04-07T12:55:10.105Z,17.30
2018-04-07T12:57:52.309Z,17.20
2018-04-07T13:00:39.058Z,17.10
2018-04-07T13:03:18.413Z,16.90
2018-04-07T13:05:56.718Z,16.90
2018-04-07T13:08:37.822Z,17.00
2018-04-07T13:11:10.582Z,17.00
2018-04-07T13:13:44.274Z,16.90
2018-04-07T13:16:17.778Z,17.10
2018-04-07T13:18:50.479Z,17.00
2018-04-07T13:21:23.222Z,17.00
2018-04-07T13:23:56.696Z,17.10
2018-04-07T13:26:29.457Z,17.10
2018-04-07T13:29:02.162Z,17.20
2018-04-07T13:31:34.912Z,17.20
2018-04-07T13:34:07.624Z,17.30
2018-04-07T13:36:42.172Z,17.50
2018-04-07T13:41:59.540Z,17.50
2018-04-07T13:44:32.237Z,17.50
2018-04-07T13:47:04.991Z,17.40
2018-04-07T13:49:37.697Z,17.40
2018-04-07T13:52:10.445Z,17.50
2018-04-07T13:55:06.953Z,17.50
2018-04-07T13:57:40.468Z,17.70
2018-04-07T14:00:13.196Z,17.70
2018-04-07T14:02:45.945Z,17.70
2018-04-07T14:05:18.651Z,17.70
2018-04-07T14:10:59.602Z,17.70
2018-04-07T14:13:32.343Z,17.70
2018-04-07T14:16:05.096Z,17.70
2018-04-07T14:18:37.799Z,17.70
2018-04-07T14:21:10.568Z,17.70
2018-04-07T14:23:43.339Z,17.60
2018-04-07T14:26:16.080Z,17.60
2018-04-07T14:28:48.790Z,17.60
2018-04-07T14:31:21.538Z,17.70
2018-04-07T14:33:54.248Z,17.70
2018-04-07T14:36:35.914Z,17.70
2018-04-07T14:39:35.378Z,17.70
2018-04-07T14:42:22.104Z,17.70
2018-04-07T14:45:00.371Z,17.80
2018-04-07T14:50:25.236Z,17.80
2018-04-07T14:53:04.271Z,17.80
2018-04-07T14:55:46.704Z,17.80
2018-04-07T14:58:28.056Z,17.80
2018-04-07T15:01:06.368Z,17.80
2018-04-07T15:03:39.158Z,17.80
2018-04-07T15:06:12.674Z,17.90
2018-04-07T15:08:53.920Z,17.90
2018-04-07T15:11:26.674Z,17.90
2018-04-07T15:14:00.198Z,17.90
2018-04-07T15:16:32.942Z,17.90
2018-04-07T15:19:06.422Z,18.00
2018-04-07T15:21:39.164Z,18.00
2018-04-07T15:24:15.445Z,17.90
2018-04-07T15:26:48.187Z,17.80
2018-04-07T15:29:20.889Z,17.80
2018-04-07T15:31:53.625Z,17.70
2018-04-07T15:34:27.095Z,17.70
2018-04-07T15:36:59.903Z,17.70
2018-04-07T15:39:39.372Z,17.80
2018-04-07T15:42:12.118Z,17.80
2018-04-07T15:44:45.599Z,17.90
2018-04-07T15:47:18.389Z,17.80
2018-04-07T15:49:52.813Z,17.70
2018-04-07T15:52:26.321Z,17.70
2018-04-07T15:55:01.832Z,17.60
2018-04-07T15:57:44.085Z,17.60
2018-04-07T16:03:06.360Z,17.50
2018-04-07T16:05:40.153Z,17.40
2018-04-07T16:08:12.887Z,17.40
2018-04-07T16:10:48.447Z,17.30
2018-04-07T16:13:21.159Z,17.30
2018-04-07T16:15:54.866Z,17.30
2018-04-07T16:18:27.596Z,17.20
2018-04-07T16:21:01.107Z,17.10
2018-04-07T16:23:33.814Z,17.10
2018-04-07T16:26:10.446Z,17.10
2018-04-07T16:28:43.908Z,16.90
2018-04-07T16:31:16.677Z,16.90
2018-04-07T16:33:49.393Z,16.80
2018-04-07T16:36:23.937Z,16.70
2018-04-07T16:38:56.637Z,16.70
2018-04-07T16:41:30.202Z,16.50
2018-04-07T16:44:03.712Z,16.50
2018-04-07T16:46:36.453Z,16.50
2018-04-07T16:49:09.191Z,16.40
2018-04-07T16:51:41.902Z,16.30
2018-04-07T16:54:20.522Z,16.20
2018-04-07T16:56:53.235Z,16.00
2018-04-07T16:59:42.822Z,15.90
2018-04-07T17:02:33.886Z,15.80
2018-04-07T17:08:11.281Z,15.70
2018-04-07T17:10:57.072Z,15.40
2018-04-07T17:13:33.246Z,15.40
2018-04-07T17:18:48.646Z,15.10
2018-04-07T17:21:25.644Z,15.10
2018-04-07T17:24:02.956Z,14.90
2018-04-07T17:26:39.215Z,14.80
2018-04-07T17:29:19.585Z,14.70
2018-04-07T17:34:52.075Z,14.60
2018-04-07T17:37:39.248Z,14.50
2018-04-07T17:40:18.728Z,14.40
2018-04-07T17:42:59.897Z,14.40
2018-04-07T17:48:32.725Z,14.30
2018-04-07T17:51:26.688Z,14.20
2018-04-07T17:54:05.920Z,14.10
2018-04-07T17:59:31.094Z,13.80
2018-04-07T18:04:57.452Z,13.90
2018-04-07T18:07:36.120Z,13.90
2018-04-07T18:10:18.946Z,13.80
2018-04-07T18:15:36.141Z,13.30
2018-04-07T18:23:59.440Z,12.80
2018-04-07T18:26:34.156Z,12.60
2018-04-07T18:29:07.157Z,12.60
2018-04-07T18:34:33.800Z,12.20
2018-04-07T18:37:06.946Z,11.80
2018-04-07T18:39:41.927Z,11.70
2018-04-07T18:42:21.952Z,11.60
2018-04-07T18:44:55.779Z,11.60
2018-04-07T18:47:30.065Z,11.60
2018-04-07T18:50:07.585Z,11.40
2018-04-07T18:55:39.365Z,11.10
2018-04-07T18:58:26.542Z,10.80
2018-04-07T19:01:10.059Z,10.70
2018-04-07T19:03:49.618Z,10.80
2018-04-07T19:11:58.049Z,11.60
2018-04-07T19:14:33.698Z,11.70
2018-04-07T19:17:08.182Z,11.60
2018-04-07T19:19:41.702Z,11.60
2018-04-07T19:22:14.498Z,11.50
2018-04-07T19:24:47.990Z,11.60
2018-04-07T19:27:28.575Z,11.70
2018-04-07T19:30:02.966Z,11.70
2018-04-07T19:32:35.719Z,11.60
2018-04-07T19:35:09.867Z,11.60
2018-04-07T19:37:42.688Z,11.60
2018-04-07T19:40:15.402Z,11.60
2018-04-07T19:42:59.649Z,11.50
2018-04-07T19:45:32.455Z,11.30
2018-04-07T19:48:05.984Z,10.90
2018-04-07T19:50:48.096Z,10.80
2018-04-07T19:53:20.932Z,10.80
2018-04-07T19:55:54.640Z,10.50
2018-04-07T20:01:18.599Z,10.40
2018-04-07T20:03:51.567Z,10.40
2018-04-07T20:06:27.749Z,10.50
2018-04-07T20:09:00.499Z,10.50
2018-04-07T20:11:33.228Z,10.40
2018-04-07T20:14:07.530Z,10.30
2018-04-07T20:16:40.426Z,10.30
2018-04-07T20:19:15.397Z,10.20
2018-04-07T20:21:48.937Z,10.10
2018-04-07T20:24:23.743Z,10.10
2018-04-07T20:29:59.089Z,10.00
2018-04-07T20:32:39.594Z,10.00
2018-04-07T20:35:19.360Z,10.00
2018-04-07T20:37:52.827Z,10.20
2018-04-07T20:40:25.560Z,10.20
2018-04-07T20:43:00.628Z,10.30
2018-04-07T20:45:34.312Z,10.40
2018-04-07T20:48:07.168Z,10.40
2018-04-07T20:53:25.968Z,10.40
2018-04-07T20:56:10.329Z,10.40
2018-04-07T20:58:44.579Z,10.60
2018-04-07T21:01:18.049Z,10.90
2018-04-07T21:03:55.794Z,10.90
2018-04-07T21:06:47.293Z,10.90
2018-04-07T21:09:24.996Z,10.90
2018-04-07T21:12:04.440Z,11.00
2018-04-07T21:14:44.215Z,11.00
2018-04-07T21:17:20.115Z,11.00
2018-04-07T21:20:05.847Z,11.10
2018-04-07T21:22:46.783Z,11.00
2018-04-07T21:28:23.682Z,10.90
2018-04-07T21:30:56.452Z,10.90
2018-04-07T21:33:29.960Z,10.90
2018-04-07T21:36:04.406Z,10.90
2018-04-07T21:38:37.143Z,10.90
2018-04-07T21:44:14.205Z,11.00
2018-04-07T21:47:19.504Z,11.10
2018-04-07T21:49:54.506Z,11.20
2018-04-07T21:52:29.095Z,11.30
2018-04-07T21:55:06.485Z,11.40
2018-04-07T21:57:49.643Z,11.40
2018-04-07T22:00:23.396Z,11.40
2018-04-07T22:03:02.440Z,11.30
2018-04-07T22:05:55.947Z,11.30
2018-04-07T22:11:30.896Z,11.30
2018-04-07T22:14:10.851Z,11.00
2018-04-07T22:16:54.270Z,11.00
2018-04-07T22:22:37.125Z,10.80
2018-04-07T22:28:03.174Z,10.70
2018-04-07T22:33:20.571Z,10.60
2018-04-07T22:38:45.923Z,10.50
2018-04-07T22:41:33.950Z,10.40
2018-04-07T22:44:15.832Z,10.50
2018-04-07T22:46:50.933Z,10.60
2018-04-07T22:49:28.612Z,10.60
2018-04-07T22:52:21.523Z,10.50
2018-04-07T22:57:53.265Z,10.40
2018-04-07T23:06:01.907Z,10.30
2018-04-07T23:08:34.716Z,10.20
2018-04-07T23:11:07.463Z,10.20
2018-04-07T23:13:43.951Z,10.20
2018-04-07T23:16:16.783Z,10.20
2018-04-07T23:18:49.497Z,10.20
2018-04-07T23:26:58.223Z,10.20
2018-04-07T23:52:15.095Z,10.50
2018-04-07T23:54:54.524Z,10.50
2018-04-07T23:57:36.359Z,10.50
